Schneifelwetter: Wetterstation Hallschlag, 537 m . NN
Wetterdaten: Samstag, 10.04.2010
Datum Zeit Temp. A. Feuchte A. Luftdruck Regen Wind Richtung Richtung Sonnenschein Helligkeit T Regen Taupunkt Windchill
10.04.2010 00:01 3,3 C 85 % 1029 hPa 0,0 l/m 0,1 km/h (0 Bft) N-NW 330 0 min 0 lux 0,00 min 1,0 C 3,3 C
10.04.2010 00:16 2,7 C 86 % 1029 hPa 0,0 l/m 2,6 km/h (1 Bft) N-NW 330 0 min 0 lux 0,00 min 0,6 C 2,7 C
10.04.2010 00:31 2,4 C 88 % 1029 hPa 0,0 l/m 0,0 km/h (0 Bft) N-NW 330 0 min 0 lux 0,00 min 0,6 C 2,4 C
10.04.2010 00:46 2,1 C 88 % 1029 hPa 0,0 l/m 0,0 km/h (0 Bft) N-NW 330 0 min 0 lux 0,00 min 0,3 C 2,1 C
10.04.2010 01:01 2,0 C 89 % 1029 hPa 0,0 l/m 0,0 km/h (0 Bft) N-NW 330 0 min 0 lux 0,00 min 0,4 C 2,0 C
10.04.2010 01:16 1,8 C 89 % 1029 hPa 0,0 l/m 1,5 km/h (1 Bft) N-NW 330 0 min 0 lux 0,00 min 0,2 C 1,8 C
10.04.2010 01:31 1,8 C 90 % 1029 hPa 0,0 l/m 0,0 km/h (0 Bft) N-NW 330 0 min 0 lux 0,00 min 0,3 C 1,8 C
10.04.2010 01:46 1,9 C 91 % 1029 hPa 0,0 l/m 0,0 km/h (0 Bft) NW 325 0 min 0 lux 0,00 min 0,6 C 1,9 C
10.04.2010 02:01 2,1 C 91 % 1029 hPa 0,0 l/m 0,0 km/h (0 Bft) N-NW 330 0 min 0 lux 0,00 min 0,8 C 2,1 C
10.04.2010 02:16 1,9 C 90 % 1029 hPa 0,0 l/m 0,0 km/h (0 Bft) N-NW 330 0 min 0 lux 0,00 min 0,4 C 1,9 C
10.04.2010 02:31 1,6 C 90 % 1028 hPa 0,0 l/m 0,7 km/h (0 Bft) N-NW 330 0 min 0 lux 0,00 min 0,1 C 1,6 C
10.04.2010 02:46 1,4 C 91 % 1028 hPa 0,0 l/m 4,0 km/h (1 Bft) N-NW 330 0 min 0 lux 0,00 min 0,1 C 1,4 C
10.04.2010 03:02 2,0 C 93 % 1028 hPa 0,0 l/m 6,0 km/h (2 Bft) NW22.5 320 0 min 0 lux 0,00 min 1,0 C 2,0 C
10.04.2010 03:17 1,9 C 92 % 1028 hPa 0,0 l/m 3,0 km/h (1 Bft) NW 315 0 min 0 lux 0,00 min 0,7 C 1,9 C
10.04.2010 03:32 1,4 C 92 % 1028 hPa 0,0 l/m 0,0 km/h (0 Bft) NW 315 0 min 0 lux 0,00 min 0,2 C 1,4 C
10.04.2010 03:47 1,2 C 92 % 1028 hPa 0,0 l/m 0,0 km/h (0 Bft) NW 315 0 min 0 lux 0,00 min 0,0 C 1,2 C
10.04.2010 04:02 1,6 C 93 % 1028 hPa 0,0 l/m 5,0 km/h (1 Bft) NW 315 0 min 0 lux 0,00 min 0,6 C 1,6 C
10.04.2010 04:17 1,5 C 93 % 1028 hPa 0,0 l/m 3,5 km/h (1 Bft) NW 315 0 min 0 lux 0,00 min 0,5 C 1,5 C
10.04.2010 04:32 1,0 C 92 % 1028 hPa 0,0 l/m 0,0 km/h (0 Bft) NW 315 0 min 0 lux 0,00 min -0,2 C 1,0 C
10.04.2010 04:47 0,7 C 93 % 1028 hPa 0,0 l/m 0,0 km/h (0 Bft) NW 315 0 min 0 lux 0,00 min -0,3 C 0,7 C
10.04.2010 05:02 0,3 C 93 % 1028 hPa 0,0 l/m 2,4 km/h (1 Bft) NW 315 0 min 0 lux 0,00 min -0,7 C 0,3 C
10.04.2010 05:17 0,1 C 94 % 1028 hPa 0,0 l/m 2,1 km/h (1 Bft) NW 315 0 min 0 lux 0,00 min -0,7 C 0,1 C
10.04.2010 05:32 -0,4 C 94 % 1028 hPa 0,0 l/m 0,0 km/h (0 Bft) NW 315 0 min 0 lux 0,00 min -1,2 C -0,4 C
10.04.2010 05:47 -0,7 C 94 % 1028 hPa 0,0 l/m 0,0 km/h (0 Bft) NW 315 0 min 0 lux 0,00 min -1,5 C -0,7 C
10.04.2010 06:02 -0,6 C 94 % 1028 hPa 0,0 l/m 2,0 km/h (1 Bft) NW 315 0 min 0 lux 0,00 min -1,4 C -0,6 C
10.04.2010 06:17 -0,6 C 94 % 1028 hPa 0,0 l/m 3,3 km/h (1 Bft) NW 315 0 min 0 lux 0,00 min -1,4 C -0,6 C
10.04.2010 06:32 -0,6 C 95 % 1028 hPa 0,0 l/m 0,0 km/h (0 Bft) NW 315 0 min 0 lux 0,00 min -1,3 C -0,6 C
10.04.2010 06:47 -0,2 C 95 % 1028 hPa 0,0 l/m 0,0 km/h (0 Bft) NW 315 0 min 101 lux 0,00 min -0,9 C -0,2 C
10.04.2010 07:01 0,7 C 96 % 1028 hPa 0,0 l/m 0,4 km/h (0 Bft) NW 315 0 min 465 lux 0,00 min 0,1 C 0,7 C
10.04.2010 07:16 0,9 C 96 % 1028 hPa 0,0 l/m 0,0 km/h (0 Bft) NW 315 0 min 1,09 klux 0,00 min 0,3 C 0,9 C
10.04.2010 07:31 2,6 C 98 % 1028 hPa 0,0 l/m 11,9 km/h (2 Bft) N22.5 360 0 min 1,80 klux 0,00 min 2,3 C -1,9 C
10.04.2010 07:46 3,0 C 97 % 1028 hPa 0,0 l/m 10,8 km/h (2 Bft) N 5 0 min 2,60 klux 0,00 min 2,6 C -0,7 C
10.04.2010 08:01 3,5 C 97 % 1028 hPa 0,0 l/m 15,1 km/h (3 Bft) N22.5 10 0 min 6,01 klux 0,00 min 3,1 C -2,8 C
10.04.2010 08:16 3,7 C 97 % 1028 hPa 0,0 l/m 11,0 km/h (2 Bft) N 360 0 min 8,62 klux 0,00 min 3,3 C -0,1 C
10.04.2010 08:31 3,9 C 97 % 1028 hPa 0,0 l/m 11,2 km/h (2 Bft) N22.5 5 0 min 9,00 klux 0,00 min 3,5 C 0,0 C
10.04.2010 08:46 4,3 C 97 % 1028 hPa 0,0 l/m 17,2 km/h (3 Bft) N-NO22.5 20 0 min 13,0 klux 0,00 min 3,9 C -2,9 C
10.04.2010 09:01 4,5 C 96 % 1028 hPa 0,0 l/m 19,8 km/h (3 Bft) N-NO22.5 15 0 min 16,7 klux 0,00 min 3,9 C -3,7 C
10.04.2010 09:16 5,2 C 94 % 1028 hPa 0,0 l/m 18,4 km/h (3 Bft) N-NO22.5 20 0 min 22,4 klux 0,00 min 4,3 C -2,3 C
10.04.2010 09:31 5,2 C 91 % 1028 hPa 0,0 l/m 18,9 km/h (3 Bft) N-NO22.5 30 0 min 35,9 klux 0,00 min 3,9 C -2,5 C
10.04.2010 09:46 5,1 C 89 % 1028 hPa 0,0 l/m 25,7 km/h (4 Bft) N-NO22.5 30 0 min 21,4 klux 0,00 min 3,4 C -5,0 C
10.04.2010 10:01 5,2 C 86 % 1028 hPa 0,0 l/m 28,1 km/h (4 Bft) N-NO22.5 25 0 min 23,6 klux 0,00 min 3,1 C -5,6 C
10.04.2010 10:16 6,5 C 80 % 1028 hPa 0,0 l/m 26,0 km/h (4 Bft) NO45 55 15 min 65,8 klux 0,00 min 3,3 C -3,2 C
10.04.2010 10:31 7,6 C 72 % 1028 hPa 0,0 l/m 30,5 km/h (5 Bft) NO45 35 15 min 72,4 klux 0,00 min 2,9 C -2,8 C
10.04.2010 10:46 7,6 C 69 % 1028 hPa 0,0 l/m 27,8 km/h (4 Bft) N-NO22.5 20 15 min 72,4 klux 0,00 min 2,3 C -2,2 C
10.04.2010 11:01 7,2 C 69 % 1028 hPa 0,0 l/m 27,8 km/h (4 Bft) N-NO22.5 20 15 min 70,1 klux 0,00 min 1,9 C -2,7 C
10.04.2010 11:16 7,3 C 69 % 1028 hPa 0,0 l/m 28,0 km/h (4 Bft) N-NO45 20 15 min 83,1 klux 0,00 min 2,0 C -2,6 C
10.04.2010 11:32 8,0 C 68 % 1028 hPa 0,0 l/m 25,0 km/h (4 Bft) N-NO22.5 15 16 min 87,9 klux 0,00 min 2,5 C -0,9 C
10.04.2010 11:46 8,0 C 68 % 1028 hPa 0,0 l/m 26,6 km/h (4 Bft) N-NO22.5 15 14 min 88,1 klux 0,00 min 2,5 C -1,3 C
10.04.2010 12:01 8,1 C 65 % 1028 hPa 0,0 l/m 26,2 km/h (4 Bft) N-NO67.5 15 15 min 85,4 klux 0,00 min 1,9 C -1,1 C
10.04.2010 12:16 8,2 C 64 % 1028 hPa 0,0 l/m 25,3 km/h (4 Bft) N-NO45 30 15 min 84,9 klux 0,00 min 1,8 C -0,7 C
10.04.2010 12:31 8,7 C 63 % 1028 hPa 0,0 l/m 27,3 km/h (4 Bft) NO45 40 15 min 88,4 klux 0,00 min 2,1 C -0,5 C
10.04.2010 12:46 8,7 C 62 % 1027 hPa 0,0 l/m 30,7 km/h (5 Bft) N-NO22.5 25 15 min 91,1 klux 0,00 min 1,8 C -1,3 C
10.04.2010 13:01 8,8 C 61 % 1027 hPa 0,0 l/m 26,5 km/h (4 Bft) N-NO22.5 20 15 min 95,7 klux 0,00 min 1,7 C -0,2 C
10.04.2010 13:17 8,6 C 64 % 1027 hPa 0,0 l/m 24,0 km/h (4 Bft) N45 5 16 min 97,7 klux 0,00 min 2,2 C 0,2 C
10.04.2010 13:31 8,4 C 63 % 1027 hPa 0,0 l/m 27,2 km/h (4 Bft) N-NO22.5 30 14 min 100 klux 0,00 min 1,8 C -0,9 C
10.04.2010 13:46 8,6 C 61 % 1027 hPa 0,0 l/m 23,8 km/h (4 Bft) N-NO67.5 15 15 min 77,2 klux 0,00 min 1,5 C 0,3 C
10.04.2010 14:01 8,5 C 65 % 1027 hPa 0,0 l/m 30,1 km/h (5 Bft) N-NO67.5 20 15 min 92,4 klux 0,00 min 2,3 C -1,5 C
10.04.2010 14:16 8,8 C 61 % 1027 hPa 0,0 l/m 26,8 km/h (4 Bft) N22.5 10 15 min 92,1 klux 0,00 min 1,7 C -0,3 C
10.04.2010 14:31 8,8 C 64 % 1027 hPa 0,0 l/m 26,6 km/h (4 Bft) N22.5 10 15 min 91,8 klux 0,00 min 2,4 C -0,2 C
10.04.2010 14:46 8,5 C 64 % 1026 hPa 0,0 l/m 30,7 km/h (5 Bft) NO45 35 15 min 87,1 klux 0,00 min 2,1 C -1,6 C
10.04.2010 15:02 8,8 C 64 % 1026 hPa 0,0 l/m 26,4 km/h (4 Bft) N45 10 16 min 88,2 klux 0,00 min 2,4 C -0,2 C
10.04.2010 15:16 8,9 C 61 % 1026 hPa 0,0 l/m 30,9 km/h (5 Bft) N-NO22.5 20 14 min 87,4 klux 0,00 min 1,8 C -1,1 C
10.04.2010 15:31 8,6 C 58 % 1026 hPa 0,0 l/m 30,3 km/h (5 Bft) N22.5 10 15 min 87,9 klux 0,00 min 0,8 C -1,4 C
10.04.2010 15:46 8,4 C 60 % 1026 hPa 0,0 l/m 30,4 km/h (5 Bft) N67.5 10 15 min 89,7 klux 0,00 min 1,1 C -1,7 C
10.04.2010 16:01 7,9 C 61 % 1026 hPa 0,0 l/m 30,2 km/h (5 Bft) N-NO67.5 30 15 min 58,8 klux 0,00 min 0,9 C -2,3 C
10.04.2010 16:16 8,3 C 60 % 1026 hPa 0,0 l/m 28,4 km/h (4 Bft) N22.5 10 15 min 80,4 klux 0,00 min 1,0 C -1,4 C
10.04.2010 16:32 8,1 C 61 % 1025 hPa 0,0 l/m 35,4 km/h (5 Bft) N-NO22.5 25 16 min 75,9 klux 0,00 min 1,0 C -3,1 C
10.04.2010 16:47 8,3 C 61 % 1025 hPa 0,0 l/m 29,1 km/h (5 Bft) N-NO22.5 15 15 min 69,8 klux 0,00 min 1,2 C -1,5 C
10.04.2010 17:01 8,3 C 63 % 1025 hPa 0,0 l/m 32,0 km/h (5 Bft) N45 360 14 min 69,3 klux 0,00 min 1,7 C -2,2 C
10.04.2010 17:16 7,7 C 62 % 1025 hPa 0,0 l/m 31,4 km/h (5 Bft) N-NO22.5 25 15 min 56,2 klux 0,00 min 0,9 C -2,9 C
10.04.2010 17:31 7,4 C 61 % 1025 hPa 0,0 l/m 31,8 km/h (5 Bft) N-NO67.5 20 15 min 52,1 klux 0,00 min 0,4 C -3,4 C
10.04.2010 17:46 7,7 C 63 % 1025 hPa 0,0 l/m 28,6 km/h (4 Bft) NO67.5 40 15 min 49,5 klux 0,00 min 1,1 C -2,2 C
10.04.2010 18:01 7,5 C 62 % 1025 hPa 0,0 l/m 27,6 km/h (4 Bft) N-NO67.5 15 0 min 45,1 klux 0,00 min 0,7 C -2,3 C
10.04.2010 18:17 7,9 C 63 % 1025 hPa 0,0 l/m 24,7 km/h (4 Bft) N67.5 5 0 min 47,2 klux 0,00 min 1,3 C -0,9 C
10.04.2010 18:31 7,5 C 63 % 1025 hPa 0,0 l/m 27,8 km/h (4 Bft) N-NO22.5 20 0 min 41,8 klux 0,00 min 0,9 C -2,3 C
10.04.2010 18:46 7,1 C 64 % 1025 hPa 0,0 l/m 28,8 km/h (4 Bft) N-NO45 20 0 min 32,2 klux 0,00 min 0,8 C -3,1 C
10.04.2010 19:01 7,0 C 63 % 1025 hPa 0,0 l/m 24,8 km/h (4 Bft) N45 5 0 min 29,0 klux 0,00 min 0,4 C -2,2 C
10.04.2010 19:16 6,8 C 67 % 1025 hPa 0,0 l/m 29,5 km/h (5 Bft) N-NO22.5 30 0 min 28,4 klux 0,00 min 1,1 C -3,7 C
10.04.2010 19:31 6,2 C 66 % 1024 hPa 0,0 l/m 26,4 km/h (4 Bft) N-NO45 25 0 min 17,4 klux 0,00 min 0,3 C -3,7 C
10.04.2010 19:46 5,6 C 67 % 1024 hPa 0,0 l/m 26,1 km/h (4 Bft) N-NO22.5 25 0 min 10,6 klux 0,00 min -0,0 C -4,5 C
10.04.2010 20:02 5,2 C 69 % 1024 hPa 0,0 l/m 18,9 km/h (3 Bft) N22.5 10 0 min 7,68 klux 0,00 min -0,0 C -2,5 C
10.04.2010 20:16 4,7 C 71 % 1024 hPa 0,0 l/m 22,3 km/h (4 Bft) N-NO22.5 15 0 min 2,01 klux 0,00 min -0,1 C -4,4 C
10.04.2010 20:31 4,2 C 72 % 1024 hPa 0,0 l/m 15,0 km/h (3 Bft) N-NO22.5 15 0 min 575 lux 0,00 min -0,4 C -1,9 C
10.04.2010 20:46 3,6 C 74 % 1024 hPa 0,0 l/m 14,5 km/h (3 Bft) N-NO 25 0 min 111 lux 0,00 min -0,6 C -2,3 C
10.04.2010 21:01 3,2 C 75 % 1024 hPa 0,0 l/m 10,5 km/h (2 Bft) N-NO22.5 20 0 min 24 lux 0,00 min -0,8 C -0,3 C
10.04.2010 21:16 3,0 C 76 % 1025 hPa 0,0 l/m 8,2 km/h (2 Bft) N-NO 20 0 min 4 lux 0,00 min -0,8 C 1,3 C
10.04.2010 21:32 2,9 C 77 % 1025 hPa 0,0 l/m 6,6 km/h (2 Bft) N-NO 20 0 min 0 lux 0,00 min -0,7 C 2,7 C
10.04.2010 21:47 2,9 C 78 % 1025 hPa 0,0 l/m 7,0 km/h (2 Bft) N 360 0 min 0 lux 0,00 min -0,5 C 2,3 C
10.04.2010 22:01 2,9 C 78 % 1025 hPa 0,0 l/m 10,6 km/h (2 Bft) N 5 0 min 0 lux 0,00 min -0,5 C -0,7 C
10.04.2010 22:16 2,7 C 79 % 1024 hPa 0,0 l/m 11,6 km/h (2 Bft) N45 10 0 min 0 lux 0,00 min -0,6 C -1,6 C
10.04.2010 22:31 2,5 C 81 % 1024 hPa 0,0 l/m 12,6 km/h (3 Bft) N22.5 5 0 min 0 lux 0,00 min -0,4 C -2,5 C
10.04.2010 22:46 2,5 C 81 % 1024 hPa 0,0 l/m 14,1 km/h (3 Bft) N67.5 360 0 min 0 lux 0,00 min -0,4 C -3,4 C
10.04.2010 23:01 2,3 C 81 % 1024 hPa 0,0 l/m 13,2 km/h (3 Bft) N-NO22.5 15 0 min 0 lux 0,00 min -0,6 C -3,1 C
10.04.2010 23:17 2,1 C 83 % 1024 hPa 0,0 l/m 16,1 km/h (3 Bft) N22.5 10 0 min 0 lux 0,00 min -0,5 C -5,0 C
10.04.2010 23:31 2,0 C 84 % 1024 hPa 0,0 l/m 15,1 km/h (3 Bft) N-NO22.5 15 0 min 0 lux 0,00 min -0,4 C -4,6 C
10.04.2010 23:46 2,1 C 85 % 1024 hPa 0,0 l/m 18,9 km/h (3 Bft) N22.5 5 0 min 0 lux 0,00 min -0,2 C -6,4 C
10.04.2010 23:55 2,2 C 85 % 1024 hPa 0,0 l/m 22,7 km/h (4 Bft) N22.5 5 0 min 0 lux 0,00 min -0,1 C -7,9 C
_ Min-Zeit 05:47 15:31 19:31 - 00:31 - - - - - 05:47 23:55
Minimum _ -0,7 C 58 % 1024 hPa - 0,0 km/h (0 Bft) - - - - - -1,5 C -7,9 C
_ Max-Zeit 15:16 07:31 00:01 00:01 16:32 - - 11:32 13:31 00:01 09:16 00:01
Maximum _ 8,9 C 98 % 1029 hPa 0,0 l/m 35,4 km/h
N-NO (5 Bft)
- - 16 min 100 klux 0,00 min 4,3 C 3,3 C
Durchschnitt _ 4,5 C 79 % 1027 hPa #0,0 l/m 16,1 km/h (3 Bft) N-NO - #7:45 h 30,0 klux #0 min. 0,9 C -1,1 C